Time;durP1;ratioP1;P1;durP2;ratioP2;P2;SDS_P1;SDS_P2;PMS_P1;PMS_P2;Temp;Humidity;BMP_temperature;BMP_pressure;BME280_temperature;BME280_humidity;BME280_pressure;Samples;Min_cycle;Max_cycle;Signal;HPM_P1;HPM_P2
2023/05/25 00:01:42;;;;;;;26.65;15.90;;;;;;;;;;5019423;28;20937;-69
2023/05/25 00:04:09;;;;;;;30.10;15.30;;;;;;;;;;5020207;28;20037;-70
2023/05/25 00:06:36;;;;;;;27.30;17.00;;;;;;;;;;5020795;28;20050;-70
2023/05/25 00:09:02;;;;;;;25.10;15.73;;;;;;;;;;5020669;28;20045;-69
2023/05/25 00:11:27;;;;;;;26.25;15.52;;;;;;;;;;5017684;28;20100;-70
2023/05/25 00:13:53;;;;;;;27.85;15.85;;;;;;;;;;5009662;28;20171;-69
2023/05/25 00:16:19;;;;;;;21.95;15.55;;;;;;;;;;5020296;28;20033;-70
2023/05/25 00:18:47;;;;;;;22.70;14.82;;;;;;;;;;5020542;28;20132;-70
2023/05/25 00:21:12;;;;;;;20.58;13.18;;;;;;;;;;5020555;28;20601;-70
2023/05/25 00:23:38;;;;;;;16.95;12.23;;;;;;;;;;5018770;28;20091;-70
2023/05/25 00:26:03;;;;;;;17.77;12.38;;;;;;;;;;5020355;28;20045;-69
2023/05/25 00:28:29;;;;;;;18.67;12.48;;;;;;;;;;5020304;28;20072;-70
2023/05/25 00:30:55;;;;;;;16.98;11.75;;;;;;;;;;4989293;28;20522;-69
2023/05/25 00:33:21;;;;;;;17.35;10.57;;;;;;;;;;5017982;28;20133;-70
2023/05/25 00:35:46;;;;;;;20.98;10.98;;;;;;;;;;5019577;28;20119;-70
2023/05/25 00:38:18;;;;;;;15.40;11.27;;;;;;;;;;5016093;28;20037;-69
2023/05/25 00:40:44;;;;;;;16.92;11.13;;;;;;;;;;5020120;28;20128;-69
2023/05/25 00:43:10;;;;;;;15.77;10.43;;;;;;;;;;5018564;28;21005;-70
2023/05/25 00:45:36;;;;;;;19.00;10.45;;;;;;;;;;5016940;28;20481;-70
2023/05/25 00:48:03;;;;;;;17.83;10.80;;;;;;;;;;5019870;28;20550;-69
2023/05/25 00:50:39;;;;;;;19.23;12.52;;;;;;;;;;5018741;28;20055;-69
2023/05/25 00:53:07;;;;;;;20.35;11.98;;;;;;;;;;5011774;28;20223;-69
2023/05/25 00:55:39;;;;;;;18.48;12.88;;;;;;;;;;5034249;28;20170;-69
2023/05/25 00:58:07;;;;;;;16.83;11.95;;;;;;;;;;5011988;28;20060;-69
2023/05/25 01:00:36;;;;;;;22.73;13.20;;;;;;;;;;5019807;28;20052;-69
2023/05/25 01:03:10;;;;;;;21.45;12.88;;;;;;;;;;5018534;28;20054;-70
2023/05/25 01:05:37;;;;;;;18.23;11.77;;;;;;;;;;5019451;28;20046;-70
2023/05/25 01:08:04;;;;;;;22.80;11.77;;;;;;;;;;5013817;28;20049;-69
2023/05/25 01:10:36;;;;;;;24.83;12.55;;;;;;;;;;5019920;28;20041;-69
2023/05/25 01:13:03;;;;;;;18.73;12.97;;;;;;;;;;5011412;28;20446;-69
2023/05/25 01:15:29;;;;;;;19.95;12.90;;;;;;;;;;5019906;28;20457;-69
2023/05/25 01:17:58;;;;;;;23.13;12.50;;;;;;;;;;5030802;28;20064;-69
2023/05/25 01:20:26;;;;;;;22.88;13.00;;;;;;;;;;5019224;28;20049;-70
2023/05/25 01:23:06;;;;;;;20.92;13.05;;;;;;;;;;5016321;28;20045;-69
2023/05/25 01:25:44;;;;;;;24.33;13.98;;;;;;;;;;5024147;28;20104;-69
2023/05/25 01:28:39;;;;;;;22.98;14.82;;;;;;;;;;5024128;28;20049;-69
2023/05/25 01:31:06;;;;;;;23.52;14.32;;;;;;;;;;5009146;28;20453;-69
2023/05/25 01:33:32;;;;;;;26.65;15.27;;;;;;;;;;5012249;28;20394;-69
2023/05/25 01:35:59;;;;;;;23.48;14.68;;;;;;;;;;5017780;28;20059;-69
2023/05/25 01:38:25;;;;;;;28.38;16.45;;;;;;;;;;5020024;28;20556;-69
2023/05/25 01:40:50;;;;;;;25.13;15.00;;;;;;;;;;5034826;28;20053;-69
2023/05/25 01:43:15;;;;;;;27.00;17.35;;;;;;;;;;5017415;28;20029;-69
2023/05/25 01:45:41;;;;;;;27.67;16.52;;;;;;;;;;5028652;28;20403;-70
2023/05/25 01:48:21;;;;;;;33.40;16.63;;;;;;;;;;5019204;28;20053;-70
2023/05/25 01:50:56;;;;;;;30.10;16.63;;;;;;;;;;5021582;28;20037;-69
2023/05/25 01:53:27;;;;;;;29.52;17.52;;;;;;;;;;5037759;28;20038;-69
2023/05/25 01:56:03;;;;;;;32.72;18.27;;;;;;;;;;5036514;28;20053;-69
2023/05/25 01:58:41;;;;;;;33.25;18.33;;;;;;;;;;5038218;28;20468;-69
2023/05/25 02:01:08;;;;;;;31.35;18.80;;;;;;;;;;5014168;28;20056;-69
2023/05/25 02:03:35;;;;;;;40.72;20.08;;;;;;;;;;5037548;28;20033;-69
2023/05/25 02:06:02;;;;;;;28.70;16.73;;;;;;;;;;5020120;28;20053;-69
2023/05/25 02:08:27;;;;;;;28.70;16.50;;;;;;;;;;5038056;28;20049;-69
2023/05/25 02:10:53;;;;;;;40.83;17.92;;;;;;;;;;5022797;28;20049;-69
2023/05/25 02:13:18;;;;;;;35.20;18.55;;;;;;;;;;5018191;28;21242;-69
2023/05/25 02:15:44;;;;;;;27.27;16.48;;;;;;;;;;5014883;28;20570;-69
2023/05/25 02:18:09;;;;;;;26.80;16.35;;;;;;;;;;5031109;28;20068;-69
2023/05/25 02:20:35;;;;;;;28.60;16.98;;;;;;;;;;5037869;28;20445;-69
2023/05/25 02:23:01;;;;;;;28.70;15.68;;;;;;;;;;5022429;28;20092;-69
2023/05/25 02:25:26;;;;;;;27.10;16.55;;;;;;;;;;5037466;28;20053;-69
2023/05/25 02:27:53;;;;;;;25.05;14.80;;;;;;;;;;5021098;28;20073;-69
2023/05/25 02:30:19;;;;;;;27.25;15.15;;;;;;;;;;5020896;28;20076;-69
2023/05/25 02:32:45;;;;;;;27.20;13.98;;;;;;;;;;5017798;28;20072;-69
2023/05/25 02:35:11;;;;;;;24.75;14.63;;;;;;;;;;5037215;28;20081;-69
2023/05/25 02:37:37;;;;;;;27.92;14.10;;;;;;;;;;5020081;28;20407;-70
2023/05/25 02:40:04;;;;;;;23.05;13.07;;;;;;;;;;5014057;28;20195;-69
2023/05/25 02:42:30;;;;;;;27.63;14.38;;;;;;;;;;5037254;28;20054;-69
2023/05/25 02:44:57;;;;;;;22.98;13.73;;;;;;;;;;5037210;28;20509;-69
2023/05/25 02:47:23;;;;;;;23.00;14.23;;;;;;;;;;5013844;28;20048;-69
2023/05/25 02:49:49;;;;;;;22.85;13.00;;;;;;;;;;5032651;28;20498;-69
2023/05/25 02:52:15;;;;;;;24.80;14.55;;;;;;;;;;5020283;28;20049;-70
2023/05/25 02:54:41;;;;;;;22.40;13.10;;;;;;;;;;5037167;28;20033;-69
2023/05/25 02:57:07;;;;;;;24.00;11.98;;;;;;;;;;5019597;28;20183;-69
2023/05/25 02:59:33;;;;;;;25.08;12.05;;;;;;;;;;5036752;28;20132;-70
2023/05/25 03:01:59;;;;;;;25.85;12.43;;;;;;;;;;5036044;28;20387;-69
2023/05/25 03:04:25;;;;;;;22.63;12.82;;;;;;;;;;5021405;28;20072;-69
2023/05/25 03:06:50;;;;;;;19.58;11.65;;;;;;;;;;5020298;28;20049;-70
2023/05/25 03:09:18;;;;;;;18.65;11.00;;;;;;;;;;5036939;28;20048;-69
2023/05/25 03:11:46;;;;;;;23.33;11.55;;;;;;;;;;5018739;28;20041;-70
2023/05/25 03:14:14;;;;;;;19.52;10.90;;;;;;;;;;5036231;28;20048;-69
2023/05/25 03:16:43;;;;;;;19.30;10.48;;;;;;;;;;5021485;28;20076;-69
2023/05/25 03:19:09;;;;;;;16.02;10.88;;;;;;;;;;5036249;28;20827;-69
2023/05/25 03:21:36;;;;;;;19.92;10.43;;;;;;;;;;5021091;28;20038;-69
2023/05/25 03:24:02;;;;;;;22.20;11.18;;;;;;;;;;5013388;28;20081;-70
2023/05/25 03:26:29;;;;;;;20.13;10.90;;;;;;;;;;5036434;28;20045;-69
2023/05/25 03:28:55;;;;;;;24.67;11.07;;;;;;;;;;5036510;28;20107;-69
2023/05/25 03:31:21;;;;;;;23.25;11.05;;;;;;;;;;5012999;28;21116;-69
2023/05/25 03:33:47;;;;;;;17.08;10.55;;;;;;;;;;5019528;28;20069;-69
2023/05/25 03:36:16;;;;;;;20.20;11.35;;;;;;;;;;5036210;28;20136;-69
2023/05/25 03:38:43;;;;;;;15.73;10.05;;;;;;;;;;5036681;28;20052;-69
2023/05/25 03:41:09;;;;;;;19.23;10.77;;;;;;;;;;5020813;28;20498;-69
2023/05/25 03:43:34;;;;;;;23.85;11.55;;;;;;;;;;5019243;28;20044;-70
2023/05/25 03:46:01;;;;;;;24.65;11.85;;;;;;;;;;5033003;28;20124;-69
2023/05/25 03:48:26;;;;;;;24.08;12.20;;;;;;;;;;5035608;28;20132;-69
2023/05/25 03:50:54;;;;;;;24.08;11.57;;;;;;;;;;5019298;28;20064;-69
2023/05/25 03:53:20;;;;;;;26.73;11.85;;;;;;;;;;5017539;28;20041;-69
2023/05/25 03:55:46;;;;;;;26.88;12.25;;;;;;;;;;5009967;28;20041;-69
2023/05/25 03:58:12;;;;;;;19.73;11.98;;;;;;;;;;5035252;28;20151;-69
2023/05/25 04:00:37;;;;;;;21.15;11.95;;;;;;;;;;5035853;28;20036;-69
2023/05/25 04:03:03;;;;;;;19.83;11.95;;;;;;;;;;5012946;28;20038;-69
2023/05/25 04:05:28;;;;;;;25.63;11.90;;;;;;;;;;5035115;28;20041;-69
2023/05/25 04:07:56;;;;;;;19.30;11.45;;;;;;;;;;5009059;28;20406;-69
2023/05/25 04:10:21;;;;;;;19.30;10.55;;;;;;;;;;5013420;28;20128;-69
2023/05/25 04:12:47;;;;;;;28.15;12.13;;;;;;;;;;5013654;28;20549;-69
2023/05/25 04:15:13;;;;;;;22.50;11.23;;;;;;;;;;5015578;28;20064;-69
2023/05/25 04:17:51;;;;;;;20.55;11.68;;;;;;;;;;5015598;28;20115;-69
2023/05/25 04:20:16;;;;;;;20.67;11.20;;;;;;;;;;5020855;28;20470;-69
2023/05/25 04:22:43;;;;;;;22.15;12.13;;;;;;;;;;5035490;28;20033;-69
2023/05/25 04:25:09;;;;;;;19.77;11.02;;;;;;;;;;5011140;28;20064;-69
2023/05/25 04:27:35;;;;;;;22.10;12.25;;;;;;;;;;5009545;28;20431;-70
2023/05/25 04:30:06;;;;;;;27.73;11.18;;;;;;;;;;5027619;28;20073;-69
2023/05/25 04:32:46;;;;;;;22.50;10.75;;;;;;;;;;5008654;28;20542;-69
2023/05/25 04:35:50;;;;;;;16.13;10.55;;;;;;;;;;5003207;28;20866;-69
2023/05/25 04:38:17;;;;;;;19.30;10.15;;;;;;;;;;5032741;28;20034;-69
2023/05/25 04:40:45;;;;;;;18.20;10.80;;;;;;;;;;5008298;28;20796;-68
2023/05/25 04:43:12;;;;;;;17.40;11.00;;;;;;;;;;5025671;28;20037;-69
2023/05/25 04:45:38;;;;;;;18.75;9.38;;;;;;;;;;5010625;28;20045;-69
2023/05/25 04:48:06;;;;;;;14.30;10.18;;;;;;;;;;5032694;28;20428;-70
2023/05/25 04:50:31;;;;;;;19.58;10.63;;;;;;;;;;5031672;28;20506;-69
2023/05/25 04:52:57;;;;;;;21.55;11.02;;;;;;;;;;5031950;28;20053;-68
2023/05/25 04:55:22;;;;;;;16.45;10.60;;;;;;;;;;5007104;28;20037;-69
2023/05/25 04:57:48;;;;;;;16.88;10.10;;;;;;;;;;5032896;28;20057;-69
2023/05/25 05:00:14;;;;;;;16.83;9.48;;;;;;;;;;5016591;28;20054;-69
2023/05/25 05:02:41;;;;;;;19.85;9.77;;;;;;;;;;5012724;28;20037;-70
2023/05/25 05:05:07;;;;;;;16.75;10.32;;;;;;;;;;5011331;28;20606;-71
2023/05/25 05:07:32;;;;;;;20.27;10.65;;;;;;;;;;5010559;28;20069;-72
2023/05/25 05:09:58;;;;;;;27.52;11.48;;;;;;;;;;5011221;28;21117;-71
2023/05/25 05:12:24;;;;;;;15.00;10.23;;;;;;;;;;5032193;28;20042;-70
2023/05/25 05:14:51;;;;;;;21.63;10.23;;;;;;;;;;5033379;28;20046;-71
2023/05/25 05:17:18;;;;;;;19.15;10.55;;;;;;;;;;5027406;28;20567;-71
2023/05/25 05:19:44;;;;;;;19.55;10.82;;;;;;;;;;5025204;28;20045;-71
2023/05/25 05:22:14;;;;;;;19.05;10.63;;;;;;;;;;5006567;28;20033;-70
2023/05/25 05:24:39;;;;;;;17.10;10.77;;;;;;;;;;5021811;28;20055;-71
2023/05/25 05:27:05;;;;;;;19.20;11.00;;;;;;;;;;5017848;28;20045;-71
2023/05/25 05:29:41;;;;;;;17.60;9.65;;;;;;;;;;5038683;28;20050;-71
2023/05/25 05:32:07;;;;;;;18.02;10.02;;;;;;;;;;5022878;28;20088;-71
2023/05/25 05:34:33;;;;;;;22.98;11.73;;;;;;;;;;5040238;28;20933;-71
2023/05/25 05:37:04;;;;;;;20.63;11.02;;;;;;;;;;5038119;28;20540;-71
2023/05/25 05:39:30;;;;;;;21.88;10.88;;;;;;;;;;5036590;28;20033;-71
2023/05/25 05:41:55;;;;;;;23.58;10.88;;;;;;;;;;5029703;28;20049;-71
2023/05/25 05:44:21;;;;;;;15.85;10.45;;;;;;;;;;5025796;28;20046;-71
2023/05/25 05:46:47;;;;;;;17.85;10.27;;;;;;;;;;5025044;28;20092;-71
2023/05/25 05:49:12;;;;;;;15.18;10.43;;;;;;;;;;5042286;28;20057;-70
2023/05/25 05:51:38;;;;;;;19.33;10.98;;;;;;;;;;5023803;28;20045;-71
2023/05/25 05:54:04;;;;;;;22.55;11.43;;;;;;;;;;5030983;28;20053;-71
2023/05/25 05:56:30;;;;;;;19.50;10.93;;;;;;;;;;5016392;28;20055;-70
2023/05/25 05:58:55;;;;;;;20.63;10.70;;;;;;;;;;5033085;28;20056;-70
2023/05/25 06:01:21;;;;;;;25.13;12.52;;;;;;;;;;5010784;28;20199;-69
2023/05/25 06:03:47;;;;;;;15.93;11.23;;;;;;;;;;5037370;28;20091;-69
2023/05/25 06:06:13;;;;;;;21.77;12.52;;;;;;;;;;5021322;28;20080;-69
2023/05/25 06:08:41;;;;;;;23.70;11.30;;;;;;;;;;5036375;28;20029;-70
2023/05/25 06:11:07;;;;;;;17.67;10.68;;;;;;;;;;5011970;28;20046;-69
2023/05/25 06:13:34;;;;;;;20.00;10.73;;;;;;;;;;5019391;28;20562;-71
2023/05/25 06:15:59;;;;;;;16.33;10.30;;;;;;;;;;5018357;28;20049;-69
2023/05/25 06:18:25;;;;;;;19.40;11.65;;;;;;;;;;5038118;28;20049;-69
2023/05/25 06:20:50;;;;;;;20.88;11.40;;;;;;;;;;5010059;28;20056;-70
2023/05/25 06:23:17;;;;;;;18.15;11.10;;;;;;;;;;5037645;28;20628;-70
2023/05/25 06:25:46;;;;;;;16.95;10.18;;;;;;;;;;5016629;28;20041;-71
2023/05/25 06:28:12;;;;;;;20.75;11.63;;;;;;;;;;5036173;28;20046;-70
2023/05/25 06:30:37;;;;;;;16.45;10.27;;;;;;;;;;5013227;28;20049;-70
2023/05/25 06:33:04;;;;;;;22.77;10.57;;;;;;;;;;5036093;28;20089;-70
2023/05/25 06:35:30;;;;;;;20.77;11.88;;;;;;;;;;4995043;28;20042;-69
2023/05/25 06:37:56;;;;;;;21.85;10.82;;;;;;;;;;5036980;28;20051;-70
2023/05/25 06:40:21;;;;;;;18.83;11.10;;;;;;;;;;5036411;28;20128;-69
2023/05/25 06:42:46;;;;;;;18.25;11.45;;;;;;;;;;5037265;28;20033;-70
2023/05/25 06:45:50;;;;;;;18.05;11.27;;;;;;;;;;5000548;28;20053;-70
2023/05/25 06:48:16;;;;;;;16.88;9.85;;;;;;;;;;5002478;28;20139;-70
2023/05/25 06:50:41;;;;;;;19.85;11.02;;;;;;;;;;5010937;28;20048;-69
2023/05/25 06:53:07;;;;;;;23.92;10.32;;;;;;;;;;5018301;28;20045;-69
2023/05/25 06:55:32;;;;;;;20.77;10.73;;;;;;;;;;5017140;28;20419;-69
2023/05/25 06:57:58;;;;;;;22.10;10.98;;;;;;;;;;5010063;28;20073;-70
2023/05/25 07:00:24;;;;;;;23.98;9.32;;;;;;;;;;5020987;28;20144;-69
2023/05/25 07:02:49;;;;;;;19.13;10.63;;;;;;;;;;5016782;28;20929;-69
2023/05/25 07:05:15;;;;;;;20.98;10.75;;;;;;;;;;5014259;28;20586;-69
2023/05/25 07:07:40;;;;;;;24.27;10.15;;;;;;;;;;5023555;28;20229;-68
2023/05/25 07:10:06;;;;;;;22.77;10.10;;;;;;;;;;5015801;28;20168;-69
2023/05/25 07:12:32;;;;;;;21.30;10.25;;;;;;;;;;5022511;28;20056;-69
2023/05/25 07:14:57;;;;;;;20.48;11.30;;;;;;;;;;5014737;28;20050;-69
2023/05/25 07:17:23;;;;;;;19.77;11.35;;;;;;;;;;5018665;28;20043;-69
2023/05/25 07:19:48;;;;;;;19.55;10.45;;;;;;;;;;5019410;28;20071;-68
2023/05/25 07:22:17;;;;;;;18.67;10.18;;;;;;;;;;5018614;28;20149;-69
2023/05/25 07:24:44;;;;;;;21.13;11.57;;;;;;;;;;5017088;28;20084;-69
2023/05/25 07:27:10;;;;;;;24.45;12.32;;;;;;;;;;5018507;28;20072;-69
2023/05/25 07:29:35;;;;;;;20.17;11.27;;;;;;;;;;5014420;28;20378;-75
2023/05/25 07:32:01;;;;;;;20.40;11.35;;;;;;;;;;5016291;28;20107;-68
2023/05/25 07:34:26;;;;;;;22.10;12.23;;;;;;;;;;5018123;28;21048;-69
2023/05/25 07:36:51;;;;;;;23.65;12.65;;;;;;;;;;5014567;28;20053;-69
2023/05/25 07:39:17;;;;;;;20.52;11.65;;;;;;;;;;5015398;28;20073;-68
2023/05/25 07:41:42;;;;;;;21.48;11.40;;;;;;;;;;5009212;28;20050;-69
2023/05/25 07:44:08;;;;;;;18.70;12.02;;;;;;;;;;5014716;28;20068;-68
2023/05/25 07:46:33;;;;;;;17.40;10.35;;;;;;;;;;5021995;28;20053;-69
2023/05/25 07:48:58;;;;;;;17.83;9.88;;;;;;;;;;5014459;28;20049;-69
2023/05/25 07:51:27;;;;;;;14.90;9.73;;;;;;;;;;5017007;28;20053;-70
2023/05/25 07:53:54;;;;;;;18.92;9.93;;;;;;;;;;5011665;28;20053;-69
2023/05/25 07:56:19;;;;;;;18.63;10.00;;;;;;;;;;5013658;28;20049;-68
2023/05/25 07:58:45;;;;;;;17.52;10.23;;;;;;;;;;5014508;28;20056;-69
2023/05/25 08:01:10;;;;;;;15.07;9.60;;;;;;;;;;5017142;28;20044;-69
2023/05/25 08:03:36;;;;;;;15.15;9.38;;;;;;;;;;5018557;28;20068;-73
2023/05/25 08:06:02;;;;;;;17.67;9.55;;;;;;;;;;5021389;28;20060;-69
2023/05/25 08:08:27;;;;;;;16.48;9.18;;;;;;;;;;5018806;28;20085;-69
2023/05/25 08:10:52;;;;;;;14.38;8.73;;;;;;;;;;5014906;28;20045;-69
2023/05/25 08:13:18;;;;;;;15.63;9.27;;;;;;;;;;5014269;28;20080;-69
2023/05/25 08:15:43;;;;;;;13.65;7.78;;;;;;;;;;5011837;28;20049;-69
2023/05/25 08:18:09;;;;;;;16.67;8.63;;;;;;;;;;5019776;28;20046;-69
2023/05/25 08:20:35;;;;;;;15.65;8.25;;;;;;;;;;5014075;28;20037;-69
2023/05/25 08:23:00;;;;;;;16.17;9.00;;;;;;;;;;5021389;28;20037;-69
2023/05/25 08:25:26;;;;;;;16.75;9.40;;;;;;;;;;5017202;28;20410;-69
2023/05/25 08:27:51;;;;;;;21.17;9.77;;;;;;;;;;5012297;28;20152;-69
2023/05/25 08:30:17;;;;;;;15.63;10.10;;;;;;;;;;5021888;28;20080;-69
2023/05/25 08:32:42;;;;;;;16.10;9.63;;;;;;;;;;5018517;28;20044;-69
2023/05/25 08:35:08;;;;;;;16.95;9.07;;;;;;;;;;5022671;28;20413;-69
2023/05/25 08:37:34;;;;;;;12.15;8.82;;;;;;;;;;5021728;28;20045;-69
2023/05/25 08:40:01;;;;;;;12.20;8.18;;;;;;;;;;5014448;28;20057;-70
2023/05/25 08:42:27;;;;;;;17.63;9.02;;;;;;;;;;5020209;28;20052;-69
2023/05/25 08:44:53;;;;;;;13.23;9.02;;;;;;;;;;5025545;28;20087;-68
2023/05/25 08:47:21;;;;;;;15.68;9.32;;;;;;;;;;5015385;28;20057;-68
2023/05/25 08:49:47;;;;;;;14.75;9.15;;;;;;;;;;5020650;28;20072;-69
2023/05/25 08:52:13;;;;;;;16.88;9.43;;;;;;;;;;5018926;28;20106;-69
2023/05/25 08:54:42;;;;;;;13.85;8.95;;;;;;;;;;5014495;28;20057;-69
2023/05/25 08:57:19;;;;;;;8.43;6.47;;;;;;;;;;5019992;28;20053;-69
2023/05/25 09:00:00;;;;;;;14.63;8.52;;;;;;;;;;5027552;28;20053;-69
2023/05/25 09:02:34;;;;;;;13.20;7.85;;;;;;;;;;5030055;28;20056;-69
2023/05/25 09:05:00;;;;;;;13.05;7.25;;;;;;;;;;5023082;28;20081;-69
2023/05/25 09:07:30;;;;;;;12.70;7.63;;;;;;;;;;5019811;28;20050;-69
2023/05/25 09:09:56;;;;;;;10.50;7.03;;;;;;;;;;5023553;28;20041;-69
2023/05/25 09:12:22;;;;;;;10.57;7.30;;;;;;;;;;5027352;28;20042;-69
2023/05/25 09:14:48;;;;;;;9.90;6.95;;;;;;;;;;5014549;28;20429;-69
2023/05/25 09:17:15;;;;;;;8.15;6.80;;;;;;;;;;5020509;28;20167;-68
2023/05/25 09:19:42;;;;;;;12.50;6.68;;;;;;;;;;5026795;28;20545;-69
2023/05/25 09:22:09;;;;;;;13.02;6.85;;;;;;;;;;5019009;28;20413;-69
2023/05/25 09:24:35;;;;;;;14.40;7.10;;;;;;;;;;5016252;28;20053;-68
2023/05/25 09:27:02;;;;;;;9.82;6.75;;;;;;;;;;5022248;28;20441;-69
2023/05/25 09:29:28;;;;;;;10.93;7.53;;;;;;;;;;5022873;28;20054;-69
2023/05/25 09:31:55;;;;;;;10.32;7.47;;;;;;;;;;5019438;28;20053;-68
2023/05/25 09:34:24;;;;;;;15.45;7.20;;;;;;;;;;5019098;28;20042;-69
2023/05/25 09:36:52;;;;;;;10.65;6.28;;;;;;;;;;5021890;28;20057;-68
2023/05/25 09:39:17;;;;;;;9.27;6.75;;;;;;;;;;5024199;28;20041;-68
2023/05/25 09:41:43;;;;;;;10.98;7.05;;;;;;;;;;5027173;28;20508;-68
2023/05/25 09:44:08;;;;;;;12.20;6.55;;;;;;;;;;5019201;28;20084;-68
2023/05/25 09:46:37;;;;;;;8.32;6.40;;;;;;;;;;5025929;28;20136;-68
2023/05/25 09:49:07;;;;;;;9.48;6.43;;;;;;;;;;5021615;28;20049;-71
2023/05/25 09:51:33;;;;;;;8.85;6.32;;;;;;;;;;5017736;28;20045;-69
2023/05/25 09:54:00;;;;;;;12.45;6.47;;;;;;;;;;5027706;28;20045;-69
2023/05/25 09:56:31;;;;;;;11.43;6.68;;;;;;;;;;5028944;28;20045;-69
2023/05/25 09:58:57;;;;;;;15.17;6.30;;;;;;;;;;5022925;28;20107;-71
2023/05/25 10:01:23;;;;;;;10.10;6.90;;;;;;;;;;5018754;28;20041;-70
2023/05/25 10:03:49;;;;;;;13.07;6.50;;;;;;;;;;5024368;28;20050;-70
2023/05/25 10:06:19;;;;;;;9.23;6.60;;;;;;;;;;5020959;28;20060;-70
2023/05/25 10:08:46;;;;;;;8.13;5.75;;;;;;;;;;5025517;28;20053;-70
2023/05/25 10:11:13;;;;;;;8.65;6.18;;;;;;;;;;5019694;28;20049;-70
2023/05/25 10:13:39;;;;;;;7.10;5.13;;;;;;;;;;5023920;28;20045;-71
2023/05/25 10:16:08;;;;;;;10.75;6.93;;;;;;;;;;5025153;28;20486;-71
2023/05/25 10:18:36;;;;;;;7.25;5.75;;;;;;;;;;5025868;28;20119;-71
2023/05/25 10:21:05;;;;;;;8.68;6.63;;;;;;;;;;5017245;28;20050;-71
2023/05/25 10:23:46;;;;;;;9.80;6.35;;;;;;;;;;5014727;28;20033;-70
2023/05/25 10:26:17;;;;;;;10.13;6.32;;;;;;;;;;5029513;28;20056;-70
2023/05/25 10:28:44;;;;;;;10.77;7.53;;;;;;;;;;5028422;28;20050;-70
2023/05/25 10:31:11;;;;;;;9.80;6.68;;;;;;;;;;5026539;28;20288;-70
2023/05/25 10:33:36;;;;;;;12.63;7.50;;;;;;;;;;5021861;28;20046;-70
2023/05/25 10:36:02;;;;;;;8.88;6.13;;;;;;;;;;5021471;28;20104;-70
2023/05/25 10:38:33;;;;;;;12.15;6.85;;;;;;;;;;5023402;28;20095;-69
2023/05/25 10:40:58;;;;;;;11.43;7.65;;;;;;;;;;5013442;28;20049;-70
2023/05/25 10:43:25;;;;;;;8.88;6.80;;;;;;;;;;5016088;28;20045;-71
2023/05/25 10:45:51;;;;;;;8.55;6.80;;;;;;;;;;5019615;28;20080;-71
2023/05/25 10:48:16;;;;;;;11.27;7.25;;;;;;;;;;5023557;28;20132;-70
2023/05/25 10:50:48;;;;;;;9.88;7.13;;;;;;;;;;5026763;28;20073;-70
2023/05/25 10:53:19;;;;;;;11.30;6.32;;;;;;;;;;5025710;28;20057;-71
2023/05/25 10:55:51;;;;;;;10.60;6.15;;;;;;;;;;5021768;28;20056;-71
2023/05/25 10:58:18;;;;;;;8.07;6.50;;;;;;;;;;5024484;28;20049;-70
2023/05/25 11:00:57;;;;;;;8.45;5.60;;;;;;;;;;5018835;28;20064;-71
2023/05/25 11:03:42;;;;;;;10.65;5.93;;;;;;;;;;5015039;28;20046;-71
2023/05/25 11:06:09;;;;;;;8.65;6.00;;;;;;;;;;5022585;28;20053;-70
2023/05/25 11:09:00;;;;;;;6.70;5.55;;;;;;;;;;5019301;28;20140;-70
2023/05/25 11:11:41;;;;;;;7.50;5.85;;;;;;;;;;5024328;28;20053;-71
2023/05/25 11:14:19;;;;;;;7.60;5.47;;;;;;;;;;5024996;28;20157;-71
2023/05/25 11:17:10;;;;;;;5.57;4.35;;;;;;;;;;5018832;28;20056;-70
2023/05/25 11:19:52;;;;;;;10.50;5.47;;;;;;;;;;5017917;28;20041;-70
2023/05/25 11:22:21;;;;;;;;;;;;;;;;;;5026350;28;20838;-70
2023/05/25 11:24:47;;;;;;;8.63;5.88;;;;;;;;;;5018727;28;19921;-71
2023/05/25 11:27:13;;;;;;;8.55;5.78;;;;;;;;;;5018015;28;20042;-70
2023/05/25 11:29:39;;;;;;;7.50;5.35;;;;;;;;;;5014781;28;20038;-71
2023/05/25 11:32:12;;;;;;;6.80;5.07;;;;;;;;;;5017039;28;20069;-69
2023/05/25 11:34:40;;;;;;;9.85;5.65;;;;;;;;;;5020928;28;20052;-69
2023/05/25 11:37:05;;;;;;;7.38;6.18;;;;;;;;;;5013924;28;20046;-70
2023/05/25 11:39:31;;;;;;;18.45;5.82;;;;;;;;;;5010737;28;20099;-69
2023/05/25 11:42:03;;;;;;;9.05;5.18;;;;;;;;;;5012807;28;20255;-69
2023/05/25 11:44:35;;;;;;;8.02;5.72;;;;;;;;;;5019372;28;20045;-69
2023/05/25 11:47:07;;;;;;;8.07;4.35;;;;;;;;;;5019491;28;20503;-69
2023/05/25 11:49:33;;;;;;;6.75;5.20;;;;;;;;;;5017648;28;20478;-69
2023/05/25 11:52:05;;;;;;;8.23;5.97;;;;;;;;;;5014275;28;20592;-69
2023/05/25 11:54:32;;;;;;;9.32;5.40;;;;;;;;;;5018050;28;20048;-69
2023/05/25 11:56:58;;;;;;;7.40;5.70;;;;;;;;;;5013914;28;20501;-69
2023/05/25 11:59:28;;;;;;;7.95;5.65;;;;;;;;;;5019828;28;20994;-69
2023/05/25 12:02:03;;;;;;;7.80;5.80;;;;;;;;;;5020978;28;20041;-69
2023/05/25 12:04:31;;;;;;;8.10;5.80;;;;;;;;;;5021957;28;20052;-69
2023/05/25 12:07:04;;;;;;;8.15;4.80;;;;;;;;;;5019050;28;20045;-69
2023/05/25 12:09:30;;;;;;;7.97;4.78;;;;;;;;;;5019981;28;20048;-69
2023/05/25 12:11:56;;;;;;;8.30;5.57;;;;;;;;;;5023755;28;20045;-69
2023/05/25 12:14:22;;;;;;;7.45;4.63;;;;;;;;;;5023550;28;20399;-69
2023/05/25 12:16:48;;;;;;;9.52;5.00;;;;;;;;;;5021741;28;20598;-69
2023/05/25 12:19:15;;;;;;;6.88;5.43;;;;;;;;;;5025249;28;20107;-69
2023/05/25 12:21:41;;;;;;;8.13;4.93;;;;;;;;;;5021679;28;20049;-70
2023/05/25 12:24:08;;;;;;;7.63;5.35;;;;;;;;;;5014561;28;20056;-69
2023/05/25 12:26:34;;;;;;;7.97;5.57;;;;;;;;;;5012759;28;20077;-69
2023/05/25 12:29:00;;;;;;;7.93;5.20;;;;;;;;;;5022475;28;20132;-70
2023/05/25 12:31:28;;;;;;;7.07;5.35;;;;;;;;;;5016370;28;20148;-69
2023/05/25 12:34:11;;;;;;;7.22;5.32;;;;;;;;;;5022462;28;20041;-70
2023/05/25 12:36:42;;;;;;;8.02;5.22;;;;;;;;;;5024314;28;20083;-70
2023/05/25 12:39:10;;;;;;;6.65;5.10;;;;;;;;;;5024496;28;20103;-69
2023/05/25 12:41:52;;;;;;;6.65;5.13;;;;;;;;;;5018565;28;20041;-70
2023/05/25 12:44:26;;;;;;;;;;;;;;;;;;5027858;28;20053;-70
2023/05/25 12:46:53;;;;;;;6.35;5.00;;;;;;;;;;5014205;28;20271;-70
2023/05/25 12:49:30;;;;;;;9.40;6.15;;;;;;;;;;5018542;28;20041;-70
2023/05/25 12:51:56;;;;;;;9.98;5.63;;;;;;;;;;5018293;28;20107;-71
2023/05/25 12:54:44;;;;;;;11.05;5.50;;;;;;;;;;5022463;28;20057;-70
2023/05/25 12:57:12;;;;;;;6.55;5.25;;;;;;;;;;5020521;28;20542;-70
2023/05/25 12:59:39;;;;;;;7.07;6.38;;;;;;;;;;5018925;28;20045;-70
2023/05/25 13:02:08;;;;;;;7.70;5.30;;;;;;;;;;5019427;28;20922;-70
2023/05/25 13:04:35;;;;;;;12.23;5.45;;;;;;;;;;5019363;28;20050;-70
2023/05/25 13:07:00;;;;;;;10.25;6.15;;;;;;;;;;5011974;28;20625;-71
2023/05/25 13:09:26;;;;;;;8.70;5.50;;;;;;;;;;5020012;28;20120;-70
2023/05/25 13:11:55;;;;;;;5.60;5.10;;;;;;;;;;5034949;28;20585;-70
2023/05/25 13:14:22;;;;;;;8.40;5.80;;;;;;;;;;5017657;28;20566;-70
2023/05/25 13:16:48;;;;;;;5.90;5.25;;;;;;;;;;5019031;28;20076;-70
2023/05/25 13:19:14;;;;;;;6.18;5.57;;;;;;;;;;5014935;28;20053;-69
2023/05/25 13:21:39;;;;;;;6.45;5.55;;;;;;;;;;5020849;28;20076;-71
2023/05/25 13:24:05;;;;;;;7.97;5.93;;;;;;;;;;5025846;28;20049;-70
2023/05/25 13:26:30;;;;;;;7.63;5.63;;;;;;;;;;5024031;28;20050;-70
2023/05/25 13:28:55;;;;;;;7.68;5.15;;;;;;;;;;5019140;28;20076;-70
2023/05/25 13:31:21;;;;;;;7.47;5.10;;;;;;;;;;5018271;28;20596;-69
2023/05/25 13:33:46;;;;;;;12.23;5.07;;;;;;;;;;5019068;28;20077;-71
2023/05/25 13:36:12;;;;;;;9.25;5.30;;;;;;;;;;5010848;28;20402;-69
2023/05/25 13:38:37;;;;;;;6.85;5.10;;;;;;;;;;5015138;28;20061;-69
2023/05/25 13:41:03;;;;;;;6.60;5.50;;;;;;;;;;5017122;28;20045;-70
2023/05/25 13:43:28;;;;;;;8.68;6.30;;;;;;;;;;5019335;28;20104;-70
2023/05/25 13:45:54;;;;;;;11.10;6.50;;;;;;;;;;5022666;28;20045;-68
2023/05/25 13:48:20;;;;;;;9.10;5.68;;;;;;;;;;5022729;28;20135;-69
2023/05/25 13:50:46;;;;;;;7.78;5.50;;;;;;;;;;5018021;28;20605;-70
2023/05/25 13:53:12;;;;;;;7.47;5.60;;;;;;;;;;5022544;28;20052;-70
2023/05/25 13:55:40;;;;;;;7.10;5.13;;;;;;;;;;5023097;28;20502;-70
2023/05/25 13:58:06;;;;;;;8.93;5.82;;;;;;;;;;5022754;28;20057;-69
2023/05/25 14:00:31;;;;;;;6.68;5.43;;;;;;;;;;5021954;28;20053;-69
2023/05/25 14:02:57;;;;;;;9.55;5.43;;;;;;;;;;5014726;28;20045;-69
2023/05/25 14:05:23;;;;;;;8.07;5.80;;;;;;;;;;5022862;28;20045;-71
2023/05/25 14:07:48;;;;;;;7.72;4.78;;;;;;;;;;5022092;28;20593;-70
2023/05/25 14:10:14;;;;;;;9.40;6.25;;;;;;;;;;5022732;28;20111;-69
2023/05/25 14:12:40;;;;;;;7.50;5.40;;;;;;;;;;5036465;28;20053;-68
2023/05/25 14:15:06;;;;;;;11.40;6.10;;;;;;;;;;5021814;28;20657;-70
2023/05/25 14:17:31;;;;;;;6.57;5.63;;;;;;;;;;5016802;28;20041;-70
2023/05/25 14:19:57;;;;;;;10.32;5.07;;;;;;;;;;5013600;28;20052;-70
2023/05/25 14:22:26;;;;;;;7.53;5.18;;;;;;;;;;5009607;28;20072;-69
2023/05/25 14:24:52;;;;;;;10.50;5.28;;;;;;;;;;5011518;28;20411;-69
2023/05/25 14:27:20;;;;;;;7.05;5.18;;;;;;;;;;5016926;28;20037;-69
2023/05/25 14:29:49;;;;;;;8.43;5.60;;;;;;;;;;5011245;28;20053;-70